createdAt,value
2023-05-31T00:00:29.432Z,1.63
2023-05-31T00:02:57.819Z,1.90
2023-05-31T00:05:27.621Z,1.65
2023-05-31T00:07:55.869Z,1.40
2023-05-31T00:10:24.326Z,1.73
2023-05-31T00:12:52.601Z,1.80
2023-05-31T00:15:20.907Z,1.85
2023-05-31T00:17:50.962Z,1.60
2023-05-31T00:20:19.709Z,1.77
2023-05-31T00:22:50.759Z,2.28
2023-05-31T00:25:19.091Z,1.70
2023-05-31T00:27:47.406Z,1.95
2023-05-31T00:30:16.204Z,1.67
2023-05-31T00:32:44.584Z,1.55
2023-05-31T00:35:13.055Z,2.03
2023-05-31T00:37:41.313Z,1.80
2023-05-31T00:40:12.219Z,1.73
2023-05-31T00:42:40.480Z,1.83
2023-05-31T00:45:10.475Z,1.88
2023-05-31T00:47:38.774Z,2.10
2023-05-31T00:50:07.896Z,1.77
2023-05-31T00:52:36.766Z,1.73
2023-05-31T00:55:05.057Z,1.67
2023-05-31T00:57:34.935Z,2.03
2023-05-31T01:00:05.038Z,2.20
2023-05-31T01:02:34.155Z,1.70
2023-05-31T01:05:02.901Z,1.92
2023-05-31T01:07:33.710Z,2.22
2023-05-31T01:10:02.089Z,2.00
2023-05-31T01:12:36.010Z,2.42
2023-05-31T01:15:09.466Z,2.08
2023-05-31T01:17:42.260Z,2.30
2023-05-31T01:20:12.730Z,2.22
2023-05-31T01:22:51.425Z,2.13
2023-05-31T01:25:30.062Z,2.30
2023-05-31T01:28:02.126Z,2.30
2023-05-31T01:30:31.139Z,2.17
2023-05-31T01:33:00.617Z,1.98
2023-05-31T01:35:29.332Z,1.70
2023-05-31T01:37:57.643Z,2.25
2023-05-31T01:40:25.934Z,2.17
2023-05-31T01:42:54.649Z,2.25
2023-05-31T01:45:24.758Z,1.60
2023-05-31T01:47:56.550Z,2.00
2023-05-31T01:50:26.290Z,2.30
2023-05-31T01:52:54.779Z,1.98
2023-05-31T01:55:23.330Z,2.28
2023-05-31T01:57:52.298Z,2.05
2023-05-31T02:00:21.091Z,1.98
2023-05-31T02:02:51.102Z,2.28
2023-05-31T02:05:19.539Z,1.90
2023-05-31T02:07:48.465Z,2.13
2023-05-31T02:10:16.807Z,2.20
2023-05-31T02:12:45.134Z,2.25
2023-05-31T02:15:14.126Z,2.35
2023-05-31T02:17:44.711Z,2.05
2023-05-31T02:20:15.645Z,1.80
2023-05-31T02:22:44.182Z,2.20
2023-05-31T02:25:13.045Z,1.90
2023-05-31T02:27:41.817Z,2.30
2023-05-31T02:30:10.880Z,2.47
2023-05-31T02:32:39.702Z,2.30
2023-05-31T02:35:09.156Z,1.95
2023-05-31T02:37:39.426Z,2.15
2023-05-31T02:40:09.748Z,2.15
2023-05-31T02:42:38.673Z,2.90
2023-05-31T02:45:07.645Z,2.70
2023-05-31T02:47:35.934Z,2.20
2023-05-31T02:50:04.205Z,2.22
2023-05-31T02:52:32.953Z,2.20
2023-05-31T02:55:02.791Z,2.53
2023-05-31T02:57:31.200Z,2.53
2023-05-31T03:00:00.242Z,2.25
2023-05-31T03:02:28.576Z,2.10
2023-05-31T03:04:56.955Z,2.67
2023-05-31T03:07:25.233Z,2.58
2023-05-31T03:09:53.478Z,2.33
2023-05-31T03:12:23.097Z,2.10
2023-05-31T03:14:51.360Z,2.10
2023-05-31T03:17:19.668Z,2.30
2023-05-31T03:19:48.010Z,2.80
2023-05-31T03:22:16.317Z,2.20
2023-05-31T03:24:45.023Z,2.20
2023-05-31T03:27:14.667Z,2.55
2023-05-31T03:29:46.012Z,2.22
2023-05-31T03:32:14.315Z,3.08
2023-05-31T03:34:42.619Z,2.17
2023-05-31T03:37:11.171Z,2.08
2023-05-31T03:39:39.454Z,2.15
2023-05-31T03:42:08.263Z,2.15
2023-05-31T03:44:36.552Z,2.13
2023-05-31T03:47:06.389Z,2.75
2023-05-31T03:49:34.727Z,2.28
2023-05-31T03:52:03.028Z,2.17
2023-05-31T03:54:31.993Z,2.80
2023-05-31T03:57:00.273Z,2.70
2023-05-31T03:59:28.552Z,17.50
2023-05-31T04:01:57.162Z,24.70
2023-05-31T04:04:26.906Z,27.45
2023-05-31T04:06:55.337Z,20.02
2023-05-31T04:09:24.648Z,12.27
2023-05-31T04:11:52.932Z,4.65
2023-05-31T04:14:21.215Z,4.40
2023-05-31T04:16:49.489Z,3.50
2023-05-31T04:19:17.956Z,3.10
2023-05-31T04:21:47.876Z,2.70
2023-05-31T04:24:16.242Z,2.38
2023-05-31T04:26:44.525Z,2.63
2023-05-31T04:29:12.812Z,2.63
2023-05-31T04:31:50.739Z,2.38
2023-05-31T04:34:20.577Z,2.00
2023-05-31T04:36:51.476Z,2.08
2023-05-31T04:39:22.825Z,2.25
2023-05-31T04:41:51.210Z,2.67
2023-05-31T04:44:20.856Z,2.00
2023-05-31T04:46:49.144Z,2.55
2023-05-31T04:49:17.633Z,2.90
2023-05-31T04:51:46.159Z,2.13
2023-05-31T04:54:15.800Z,2.22
2023-05-31T04:56:44.112Z,2.10
2023-05-31T04:59:12.393Z,2.38
2023-05-31T05:01:41.513Z,2.88
2023-05-31T05:04:10.017Z,2.42
2023-05-31T05:06:38.733Z,2.53
2023-05-31T05:09:07.108Z,2.55
2023-05-31T05:11:36.769Z,2.38
2023-05-31T05:14:05.039Z,2.50
2023-05-31T05:16:33.360Z,2.42
2023-05-31T05:19:01.681Z,2.30
2023-05-31T05:21:30.702Z,2.22
2023-05-31T05:23:58.980Z,2.00
2023-05-31T05:26:29.114Z,2.17
2023-05-31T05:29:02.263Z,2.47
2023-05-31T05:31:32.587Z,1.88
2023-05-31T05:34:00.985Z,2.17
2023-05-31T05:36:29.575Z,2.10
2023-05-31T05:38:59.662Z,2.15
2023-05-31T05:41:29.710Z,2.38
2023-05-31T05:44:03.552Z,2.05
2023-05-31T05:49:00.165Z,2.13
2023-05-31T05:51:28.469Z,1.95
2023-05-31T05:53:56.767Z,2.38
2023-05-31T05:56:25.143Z,2.53
2023-05-31T05:58:53.410Z,2.25
2023-05-31T06:01:25.115Z,2.03
2023-05-31T06:03:53.527Z,1.90
2023-05-31T06:06:25.697Z,2.08
2023-05-31T06:08:55.112Z,1.92
2023-05-31T06:11:23.737Z,2.38
2023-05-31T06:13:59.099Z,2.25
2023-05-31T06:16:28.817Z,2.50
2023-05-31T06:18:57.108Z,2.40
2023-05-31T06:21:25.511Z,2.30
2023-05-31T06:23:53.781Z,2.38
2023-05-31T06:26:22.046Z,2.10
2023-05-31T06:28:51.870Z,2.33
2023-05-31T06:31:20.237Z,1.70
2023-05-31T06:33:50.639Z,1.92
2023-05-31T06:36:18.916Z,2.08
2023-05-31T06:38:47.558Z,2.20
2023-05-31T06:41:15.966Z,1.50
2023-05-31T06:43:44.233Z,1.90
2023-05-31T06:46:13.664Z,1.80
2023-05-31T06:48:41.941Z,2.00
2023-05-31T06:51:11.640Z,1.77
2023-05-31T06:53:39.941Z,1.63
2023-05-31T06:56:08.531Z,1.77
2023-05-31T06:58:36.928Z,1.50
2023-05-31T07:01:05.418Z,1.73
2023-05-31T07:03:34.030Z,2.22
2023-05-31T07:06:02.575Z,1.90
2023-05-31T07:08:32.323Z,1.83
2023-05-31T07:11:01.811Z,1.88
2023-05-31T07:13:30.239Z,2.28
2023-05-31T07:15:58.842Z,1.50
2023-05-31T07:18:27.187Z,1.42
2023-05-31T07:20:57.851Z,1.80
2023-05-31T07:23:26.353Z,1.90
2023-05-31T07:25:58.487Z,1.90
2023-05-31T07:28:26.788Z,1.55
2023-05-31T07:30:55.056Z,1.67
2023-05-31T07:33:28.445Z,1.58
2023-05-31T07:35:58.876Z,1.60
2023-05-31T07:38:27.801Z,1.70
2023-05-31T07:40:57.455Z,1.63
2023-05-31T07:43:25.984Z,1.63
2023-05-31T07:45:55.403Z,2.08
2023-05-31T07:48:23.673Z,1.63
2023-05-31T07:50:52.249Z,1.50
2023-05-31T07:53:20.508Z,1.50
2023-05-31T07:55:49.043Z,1.98
2023-05-31T07:58:18.740Z,1.60
2023-05-31T08:00:47.513Z,1.77
2023-05-31T08:03:16.026Z,1.52
2023-05-31T08:05:44.851Z,1.40
2023-05-31T08:08:13.988Z,1.63
2023-05-31T08:10:42.325Z,1.52
2023-05-31T08:13:10.552Z,1.52
2023-05-31T08:15:40.193Z,1.42
2023-05-31T08:18:08.503Z,1.67
2023-05-31T08:20:36.962Z,1.00
2023-05-31T08:23:05.262Z,1.58
2023-05-31T08:25:33.945Z,1.45
2023-05-31T08:28:02.233Z,1.63
2023-05-31T08:30:30.671Z,1.67
2023-05-31T08:33:00.449Z,2.25
2023-05-31T08:35:28.730Z,1.70
2023-05-31T08:37:56.990Z,1.77
2023-05-31T08:40:25.524Z,2.20
2023-05-31T08:42:54.868Z,1.98
2023-05-31T08:45:23.158Z,1.75
2023-05-31T08:47:59.589Z,1.48
2023-05-31T08:50:29.730Z,1.60
2023-05-31T08:52:58.702Z,1.60
2023-05-31T08:55:29.397Z,1.70
2023-05-31T08:57:59.055Z,1.50
2023-05-31T09:00:27.567Z,2.17
2023-05-31T09:02:56.249Z,1.77
2023-05-31T09:05:24.792Z,1.75
2023-05-31T09:07:55.311Z,1.80
2023-05-31T09:10:23.630Z,1.45
2023-05-31T09:12:51.876Z,1.63
2023-05-31T09:15:20.172Z,1.80
2023-05-31T09:17:50.038Z,1.20
2023-05-31T09:20:19.967Z,1.70
2023-05-31T09:22:50.292Z,1.75
2023-05-31T09:25:21.669Z,1.50
2023-05-31T09:27:49.980Z,1.75
2023-05-31T09:30:18.393Z,1.60
2023-05-31T09:32:55.603Z,1.98
2023-05-31T09:35:28.463Z,1.35
2023-05-31T09:37:57.863Z,1.55
2023-05-31T09:40:28.637Z,1.52
2023-05-31T09:42:57.173Z,1.67
2023-05-31T09:45:26.087Z,1.38
2023-05-31T09:47:54.573Z,1.50
2023-05-31T09:50:23.809Z,1.67
2023-05-31T09:52:57.262Z,1.60
2023-05-31T09:57:58.704Z,1.60
2023-05-31T10:00:28.365Z,1.27
2023-05-31T10:02:57.339Z,1.67
2023-05-31T10:05:25.649Z,1.50
2023-05-31T10:07:58.175Z,1.60
2023-05-31T10:10:26.655Z,1.70
2023-05-31T10:13:03.256Z,2.05
2023-05-31T10:15:34.128Z,1.25
2023-05-31T10:18:04.861Z,1.30
2023-05-31T10:20:35.498Z,1.10
2023-05-31T10:23:04.097Z,1.50
2023-05-31T10:25:34.622Z,1.50
2023-05-31T10:28:08.845Z,1.25
2023-05-31T10:30:38.066Z,1.38
2023-05-31T10:33:09.312Z,1.92
2023-05-31T10:35:37.656Z,1.65
2023-05-31T10:38:06.212Z,1.45
2023-05-31T10:40:36.897Z,1.65
2023-05-31T10:43:10.577Z,1.40
2023-05-31T10:45:41.537Z,1.55
2023-05-31T10:48:16.290Z,1.70
2023-05-31T10:50:57.442Z,1.73
2023-05-31T10:53:30.073Z,1.52
2023-05-31T10:56:07.391Z,1.42
2023-05-31T10:58:39.321Z,1.33
2023-05-31T11:01:09.432Z,1.55
2023-05-31T11:03:41.096Z,1.38
2023-05-31T11:06:12.837Z,1.70
2023-05-31T11:08:41.309Z,1.83
2023-05-31T11:11:28.634Z,1.50
2023-05-31T11:14:04.260Z,1.63
2023-05-31T11:16:34.369Z,1.77
2023-05-31T11:19:07.096Z,1.58
2023-05-31T11:21:51.591Z,1.55
2023-05-31T11:24:32.681Z,1.40
2023-05-31T11:27:01.752Z,1.60
2023-05-31T11:29:45.243Z,1.50
2023-05-31T11:34:55.105Z,1.45
2023-05-31T11:37:24.632Z,1.70
2023-05-31T11:39:54.268Z,1.48
2023-05-31T11:42:24.129Z,1.40
2023-05-31T11:44:53.077Z,1.35
2023-05-31T11:47:23.096Z,1.65
2023-05-31T11:49:55.059Z,1.67
2023-05-31T11:52:23.751Z,1.50
2023-05-31T11:54:52.048Z,1.92
2023-05-31T11:57:21.795Z,1.30
2023-05-31T11:59:50.191Z,1.58
2023-05-31T12:02:19.417Z,1.38
2023-05-31T12:04:47.794Z,1.70
2023-05-31T12:07:20.675Z,1.70
2023-05-31T12:09:49.255Z,1.42
2023-05-31T12:12:17.760Z,1.73
2023-05-31T12:14:52.202Z,1.92
2023-05-31T12:17:20.836Z,1.38
2023-05-31T12:19:50.133Z,1.70
2023-05-31T12:22:19.829Z,1.20
2023-05-31T12:24:53.315Z,1.58
2023-05-31T12:27:29.570Z,1.48
2023-05-31T12:30:03.007Z,2.45
2023-05-31T12:32:31.981Z,1.35
2023-05-31T12:35:07.500Z,1.48
2023-05-31T12:37:37.737Z,1.20
2023-05-31T12:40:12.553Z,1.55
2023-05-31T12:42:41.178Z,1.40
2023-05-31T12:45:10.017Z,1.45
2023-05-31T12:47:38.883Z,1.10
2023-05-31T12:50:08.360Z,1.65
2023-05-31T12:52:39.967Z,1.20
2023-05-31T12:55:09.214Z,1.30
2023-05-31T12:57:37.493Z,1.58
2023-05-31T13:00:11.289Z,1.60
2023-05-31T13:02:42.706Z,1.42
2023-05-31T13:05:11.612Z,1.60
2023-05-31T13:07:47.249Z,1.52
2023-05-31T13:10:17.001Z,1.58
2023-05-31T13:12:45.425Z,1.75
2023-05-31T13:15:13.955Z,1.40
2023-05-31T13:17:42.540Z,1.40
2023-05-31T13:20:13.383Z,1.23
2023-05-31T13:22:41.853Z,1.67
2023-05-31T13:25:12.286Z,1.52
2023-05-31T13:27:41.018Z,1.10
2023-05-31T13:30:10.379Z,1.02
2023-05-31T13:32:39.057Z,1.42
2023-05-31T13:35:09.384Z,1.33
2023-05-31T13:37:37.802Z,1.48
2023-05-31T13:40:06.672Z,1.85
2023-05-31T13:42:36.552Z,1.55
2023-05-31T13:45:07.579Z,1.50
2023-05-31T13:47:36.720Z,1.27
2023-05-31T13:50:05.247Z,1.73
2023-05-31T13:52:33.512Z,1.40
2023-05-31T13:55:01.892Z,1.38
2023-05-31T13:57:32.824Z,1.40
2023-05-31T14:00:05.144Z,1.42
2023-05-31T14:02:37.617Z,1.50
2023-05-31T14:05:06.367Z,1.15
2023-05-31T14:07:37.010Z,1.33
2023-05-31T14:10:05.880Z,1.48
2023-05-31T14:12:34.601Z,1.58
2023-05-31T14:15:05.505Z,1.63
2023-05-31T14:17:34.098Z,1.40
2023-05-31T14:20:02.889Z,1.20
2023-05-31T14:22:31.656Z,1.55
2023-05-31T14:25:00.040Z,2.08
2023-05-31T14:27:28.322Z,1.48
2023-05-31T14:29:58.858Z,1.38
2023-05-31T14:32:28.512Z,1.70
2023-05-31T14:34:57.034Z,1.60
2023-05-31T14:37:33.032Z,1.60
2023-05-31T14:40:06.176Z,1.40
2023-05-31T14:42:35.262Z,1.50
2023-05-31T14:45:04.838Z,1.30
2023-05-31T14:47:34.542Z,1.50
2023-05-31T14:50:03.018Z,1.40
2023-05-31T14:52:36.614Z,1.50
2023-05-31T14:55:05.103Z,1.40
2023-05-31T14:57:33.673Z,1.33
2023-05-31T15:00:07.403Z,1.25
2023-05-31T15:02:37.097Z,2.45
2023-05-31T15:05:05.556Z,1.90
2023-05-31T15:07:33.852Z,1.75
2023-05-31T15:10:03.839Z,1.48
2023-05-31T15:12:32.089Z,1.60
2023-05-31T15:15:02.325Z,2.10
2023-05-31T15:17:30.706Z,1.55
2023-05-31T15:20:02.489Z,1.45
2023-05-31T15:22:31.559Z,1.60
2023-05-31T15:25:02.940Z,1.88
2023-05-31T15:27:31.213Z,1.25
2023-05-31T15:29:59.665Z,1.17
2023-05-31T15:32:28.184Z,1.27
2023-05-31T15:34:56.588Z,1.27
2023-05-31T15:37:26.625Z,1.45
2023-05-31T15:39:55.250Z,1.20
2023-05-31T15:42:23.683Z,1.40
2023-05-31T15:44:51.997Z,1.15
2023-05-31T15:47:21.385Z,1.63
2023-05-31T15:49:50.338Z,1.42
2023-05-31T15:52:18.828Z,1.35
2023-05-31T15:54:48.941Z,1.27
2023-05-31T15:57:17.368Z,1.52
2023-05-31T15:59:45.665Z,1.40
2023-05-31T16:02:14.056Z,1.30
2023-05-31T16:04:42.396Z,1.23
2023-05-31T16:07:11.586Z,1.50
2023-05-31T16:09:41.102Z,1.55
2023-05-31T16:12:11.311Z,1.20
2023-05-31T16:14:39.798Z,1.27
2023-05-31T16:17:08.546Z,1.30
2023-05-31T16:19:36.848Z,1.17
2023-05-31T16:22:05.482Z,1.60
2023-05-31T16:24:33.884Z,1.58
2023-05-31T16:27:03.727Z,1.45
2023-05-31T16:29:35.424Z,1.40
2023-05-31T16:32:04.090Z,1.20
2023-05-31T16:34:33.529Z,1.20
2023-05-31T16:37:02.458Z,1.63
2023-05-31T16:39:31.671Z,1.50
2023-05-31T16:42:00.306Z,1.60
2023-05-31T16:44:28.682Z,1.17
2023-05-31T16:46:58.400Z,0.95
2023-05-31T16:49:27.008Z,1.20
2023-05-31T16:51:55.558Z,1.10
2023-05-31T16:54:25.029Z,1.30
2023-05-31T16:56:53.360Z,1.23
2023-05-31T16:59:21.665Z,1.10
2023-05-31T17:01:49.994Z,1.52
2023-05-31T17:04:19.731Z,1.10
2023-05-31T17:06:48.314Z,1.20
2023-05-31T17:09:16.647Z,1.50
2023-05-31T17:11:44.939Z,1.10
2023-05-31T17:14:13.399Z,1.38
2023-05-31T17:16:42.316Z,1.90
2023-05-31T17:19:10.701Z,1.50
2023-05-31T17:21:40.448Z,1.20
2023-05-31T17:24:08.824Z,1.55
2023-05-31T17:26:37.100Z,1.75
2023-05-31T17:29:06.052Z,1.40
2023-05-31T17:31:34.629Z,1.42
2023-05-31T17:34:02.986Z,1.23
2023-05-31T17:36:31.367Z,1.73
2023-05-31T17:39:01.076Z,1.40
2023-05-31T17:41:29.353Z,1.42
2023-05-31T17:43:57.629Z,1.35
2023-05-31T17:46:26.838Z,1.80
2023-05-31T17:48:55.619Z,1.40
2023-05-31T17:51:23.994Z,1.30
2023-05-31T17:53:52.315Z,1.48
2023-05-31T17:56:22.971Z,1.58
2023-05-31T17:58:51.452Z,1.40
2023-05-31T18:01:19.794Z,1.45
2023-05-31T18:03:48.177Z,1.65
2023-05-31T18:06:16.630Z,1.67
2023-05-31T18:08:44.988Z,1.45
2023-05-31T18:11:13.523Z,1.85
2023-05-31T18:13:43.191Z,1.48
2023-05-31T18:16:11.545Z,1.30
2023-05-31T18:18:39.842Z,1.30
2023-05-31T18:21:08.633Z,1.35
2023-05-31T18:23:38.824Z,1.67
2023-05-31T18:26:07.579Z,1.73
2023-05-31T18:28:37.053Z,1.92
2023-05-31T18:31:07.918Z,1.98
2023-05-31T18:33:38.029Z,1.52
2023-05-31T18:36:06.391Z,1.35
2023-05-31T18:38:45.064Z,1.45
2023-05-31T18:41:13.588Z,1.38
2023-05-31T18:43:41.873Z,1.40
2023-05-31T18:46:11.860Z,1.38
2023-05-31T18:48:40.235Z,1.75
2023-05-31T18:51:08.523Z,1.70
2023-05-31T18:53:37.075Z,2.17
2023-05-31T18:56:05.366Z,1.42
2023-05-31T18:58:33.635Z,1.60
2023-05-31T19:01:02.211Z,1.58
2023-05-31T19:03:32.232Z,1.63
2023-05-31T19:06:02.004Z,1.98
2023-05-31T19:08:30.614Z,1.63
2023-05-31T19:11:01.435Z,2.05
2023-05-31T19:13:29.812Z,1.30
2023-05-31T19:15:58.541Z,1.67
2023-05-31T19:18:27.417Z,1.45
2023-05-31T19:20:57.048Z,1.55
2023-05-31T19:23:26.196Z,1.45
2023-05-31T19:25:57.991Z,1.70
2023-05-31T19:28:26.416Z,1.58
2023-05-31T19:30:55.778Z,1.70
2023-05-31T19:33:24.195Z,2.00
2023-05-31T19:35:52.461Z,1.63
2023-05-31T19:38:22.675Z,1.60
2023-05-31T19:40:51.035Z,1.70
2023-05-31T19:43:19.386Z,1.90
2023-05-31T19:45:48.100Z,1.55
2023-05-31T19:48:18.030Z,1.75
2023-05-31T19:50:46.553Z,1.80
2023-05-31T19:53:14.888Z,1.70
2023-05-31T19:55:45.245Z,1.60
2023-05-31T19:58:13.491Z,1.52
2023-05-31T20:00:42.928Z,1.60
2023-05-31T20:03:11.420Z,1.88
2023-05-31T20:05:39.791Z,1.70
2023-05-31T20:08:08.319Z,1.48
2023-05-31T20:10:37.925Z,2.05
2023-05-31T20:13:07.533Z,1.60
2023-05-31T20:15:39.032Z,1.58
2023-05-31T20:18:07.404Z,1.65
2023-05-31T20:20:36.918Z,1.77
2023-05-31T20:23:05.254Z,1.60
2023-05-31T20:25:33.895Z,1.63
2023-05-31T20:28:04.349Z,1.67
2023-05-31T20:30:35.342Z,1.60
2023-05-31T20:33:03.687Z,2.10
2023-05-31T20:35:32.031Z,1.58
2023-05-31T20:38:02.427Z,1.90
2023-05-31T20:40:31.167Z,1.55
2023-05-31T20:42:59.458Z,1.30
2023-05-31T20:45:28.092Z,1.85
2023-05-31T20:47:59.049Z,1.80
2023-05-31T20:50:27.929Z,1.85
2023-05-31T20:52:56.642Z,1.75
2023-05-31T20:55:25.568Z,2.22
2023-05-31T20:57:54.173Z,1.88
2023-05-31T21:00:25.654Z,1.73
2023-05-31T21:02:54.184Z,1.70
2023-05-31T21:05:25.848Z,2.25
2023-05-31T21:07:54.482Z,2.20
2023-05-31T21:10:22.764Z,1.77
2023-05-31T21:12:51.036Z,1.60
2023-05-31T21:15:21.924Z,2.00
2023-05-31T21:17:50.246Z,1.55
2023-05-31T21:20:18.606Z,2.10
2023-05-31T21:22:48.332Z,1.63
2023-05-31T21:25:21.694Z,1.90
2023-05-31T21:27:53.201Z,1.88
2023-05-31T21:30:21.559Z,2.00
2023-05-31T21:32:49.933Z,1.60
2023-05-31T21:35:18.760Z,2.13
2023-05-31T21:37:48.804Z,1.50
2023-05-31T21:40:21.179Z,1.50
2023-05-31T21:42:49.611Z,1.85
2023-05-31T21:45:18.013Z,1.60
2023-05-31T21:47:46.469Z,1.70
2023-05-31T21:50:14.802Z,1.75
2023-05-31T21:52:43.464Z,1.77
2023-05-31T21:55:15.038Z,1.50
2023-05-31T21:57:43.589Z,1.85
2023-05-31T22:00:13.026Z,2.10
2023-05-31T22:02:41.572Z,1.50
2023-05-31T22:05:10.205Z,1.90
2023-05-31T22:07:39.877Z,2.00
2023-05-31T22:10:09.610Z,1.98
2023-05-31T22:12:39.296Z,1.85
2023-05-31T22:15:08.235Z,1.77
2023-05-31T22:17:37.750Z,2.08
2023-05-31T22:20:08.497Z,1.45
2023-05-31T22:22:37.847Z,1.88
2023-05-31T22:25:14.074Z,1.80
2023-05-31T22:27:44.417Z,1.90
2023-05-31T22:30:13.532Z,1.77
2023-05-31T22:32:41.938Z,1.42
2023-05-31T22:35:11.369Z,1.77
2023-05-31T22:37:39.716Z,2.10
2023-05-31T22:40:09.189Z,2.08
2023-05-31T22:42:37.701Z,1.58
2023-05-31T22:45:08.156Z,1.50
2023-05-31T22:47:36.550Z,1.70
2023-05-31T22:50:05.250Z,2.22
2023-05-31T22:52:41.470Z,1.52
2023-05-31T22:55:10.125Z,1.90
2023-05-31T22:57:40.584Z,1.70
2023-05-31T23:00:12.097Z,1.92
2023-05-31T23:02:43.093Z,1.70
2023-05-31T23:05:12.505Z,2.10
2023-05-31T23:07:43.629Z,2.05
2023-05-31T23:10:14.771Z,2.00
2023-05-31T23:12:44.694Z,1.88
2023-05-31T23:15:14.708Z,1.90
2023-05-31T23:17:43.772Z,1.88
2023-05-31T23:20:13.853Z,2.20
2023-05-31T23:22:42.824Z,1.95
2023-05-31T23:25:20.538Z,1.70
2023-05-31T23:27:48.899Z,2.08
2023-05-31T23:30:18.575Z,1.52
2023-05-31T23:32:47.040Z,1.83
2023-05-31T23:35:15.458Z,2.10
2023-05-31T23:37:43.914Z,1.98
2023-05-31T23:40:12.917Z,2.00
2023-05-31T23:42:41.368Z,1.73
2023-05-31T23:45:12.017Z,2.25
2023-05-31T23:47:42.340Z,1.85
2023-05-31T23:50:11.571Z,1.80
2023-05-31T23:52:40.007Z,2.05
2023-05-31T23:55:08.533Z,1.85
2023-05-31T23:57:36.892Z,2.13
